sensor_id;sensor_type;location;lat;lon;timestamp;P1;durP1;ratioP1;P2;durP2;ratioP2
12556;SDS011;6344;49.932;8.308;2022-12-01T00:01:13;31.67;;;22.70;;
12556;SDS011;6344;49.932;8.308;2022-12-01T00:03:41;30.77;;;23.53;;
12556;SDS011;6344;49.932;8.308;2022-12-01T00:06:12;30.63;;;22.40;;
12556;SDS011;6344;49.932;8.308;2022-12-01T00:08:43;30.27;;;23.90;;
12556;SDS011;6344;49.932;8.308;2022-12-01T00:11:25;32.60;;;21.47;;
12556;SDS011;6344;49.932;8.308;2022-12-01T00:13:54;30.90;;;22.63;;
12556;SDS011;6344;49.932;8.308;2022-12-01T00:16:21;30.43;;;21.10;;
12556;SDS011;6344;49.932;8.308;2022-12-01T00:18:49;33.90;;;25.03;;
12556;SDS011;6344;49.932;8.308;2022-12-01T00:21:17;31.20;;;21.83;;
12556;SDS011;6344;49.932;8.308;2022-12-01T00:23:50;32.47;;;24.23;;
12556;SDS011;6344;49.932;8.308;2022-12-01T00:26:19;34.63;;;24.20;;
12556;SDS011;6344;49.932;8.308;2022-12-01T00:28:51;33.83;;;25.27;;
12556;SDS011;6344;49.932;8.308;2022-12-01T00:31:19;38.40;;;25.10;;
12556;SDS011;6344;49.932;8.308;2022-12-01T00:33:46;37.67;;;25.20;;
12556;SDS011;6344;49.932;8.308;2022-12-01T00:36:19;36.10;;;24.80;;
12556;SDS011;6344;49.932;8.308;2022-12-01T00:38:46;40.83;;;26.27;;
12556;SDS011;6344;49.932;8.308;2022-12-01T00:41:14;38.60;;;26.20;;
12556;SDS011;6344;49.932;8.308;2022-12-01T00:43:41;34.87;;;26.37;;
12556;SDS011;6344;49.932;8.308;2022-12-01T00:46:08;37.47;;;25.23;;
12556;SDS011;6344;49.932;8.308;2022-12-01T00:48:34;39.30;;;26.10;;
12556;SDS011;6344;49.932;8.308;2022-12-01T00:51:06;40.00;;;27.07;;
12556;SDS011;6344;49.932;8.308;2022-12-01T00:53:34;39.73;;;26.13;;
12556;SDS011;6344;49.932;8.308;2022-12-01T00:56:02;40.93;;;27.03;;
12556;SDS011;6344;49.932;8.308;2022-12-01T00:58:31;42.47;;;25.30;;
12556;SDS011;6344;49.932;8.308;2022-12-01T01:01:00;35.50;;;23.10;;
12556;SDS011;6344;49.932;8.308;2022-12-01T01:03:32;36.97;;;23.83;;
12556;SDS011;6344;49.932;8.308;2022-12-01T01:06:05;36.70;;;20.73;;
12556;SDS011;6344;49.932;8.308;2022-12-01T01:08:34;25.00;;;16.60;;
12556;SDS011;6344;49.932;8.308;2022-12-01T01:11:01;28.27;;;19.20;;
12556;SDS011;6344;49.932;8.308;2022-12-01T01:13:29;21.03;;;14.70;;
12556;SDS011;6344;49.932;8.308;2022-12-01T01:16:01;37.57;;;21.40;;
12556;SDS011;6344;49.932;8.308;2022-12-01T01:18:31;33.03;;;20.87;;
12556;SDS011;6344;49.932;8.308;2022-12-01T01:21:02;35.57;;;22.20;;
12556;SDS011;6344;49.932;8.308;2022-12-01T01:23:30;29.73;;;18.00;;
12556;SDS011;6344;49.932;8.308;2022-12-01T01:26:01;36.80;;;23.03;;
12556;SDS011;6344;49.932;8.308;2022-12-01T01:28:38;33.87;;;22.70;;
12556;SDS011;6344;49.932;8.308;2022-12-01T01:31:07;35.87;;;22.17;;
12556;SDS011;6344;49.932;8.308;2022-12-01T01:33:39;38.80;;;26.30;;
12556;SDS011;6344;49.932;8.308;2022-12-01T01:36:14;38.03;;;23.97;;
12556;SDS011;6344;49.932;8.308;2022-12-01T01:38:42;39.23;;;23.07;;
12556;SDS011;6344;49.932;8.308;2022-12-01T01:41:13;39.57;;;23.20;;
12556;SDS011;6344;49.932;8.308;2022-12-01T01:43:42;34.63;;;23.37;;
12556;SDS011;6344;49.932;8.308;2022-12-01T01:46:13;39.73;;;24.00;;
12556;SDS011;6344;49.932;8.308;2022-12-01T01:48:42;40.07;;;21.87;;
12556;SDS011;6344;49.932;8.308;2022-12-01T01:51:17;36.23;;;22.73;;
12556;SDS011;6344;49.932;8.308;2022-12-01T01:53:49;41.50;;;23.50;;
12556;SDS011;6344;49.932;8.308;2022-12-01T01:56:24;37.47;;;23.40;;
12556;SDS011;6344;49.932;8.308;2022-12-01T01:58:55;40.47;;;25.00;;
12556;SDS011;6344;49.932;8.308;2022-12-01T02:01:23;51.57;;;25.60;;
12556;SDS011;6344;49.932;8.308;2022-12-01T02:03:50;38.83;;;24.63;;
12556;SDS011;6344;49.932;8.308;2022-12-01T02:06:22;44.83;;;24.50;;
12556;SDS011;6344;49.932;8.308;2022-12-01T02:08:49;39.37;;;24.60;;
12556;SDS011;6344;49.932;8.308;2022-12-01T02:17:29;46.90;;;28.30;;
12556;SDS011;6344;49.932;8.308;2022-12-01T02:26:24;45.30;;;25.53;;
12556;SDS011;6344;49.932;8.308;2022-12-01T02:29:21;41.87;;;24.03;;
12556;SDS011;6344;49.932;8.308;2022-12-01T02:32:14;41.87;;;26.53;;
12556;SDS011;6344;49.932;8.308;2022-12-01T02:34:50;36.57;;;20.80;;
12556;SDS011;6344;49.932;8.308;2022-12-01T02:37:22;43.83;;;24.87;;
12556;SDS011;6344;49.932;8.308;2022-12-01T02:40:00;41.17;;;27.40;;
12556;SDS011;6344;49.932;8.308;2022-12-01T02:42:36;46.07;;;29.17;;
12556;SDS011;6344;49.932;8.308;2022-12-01T02:45:30;42.10;;;25.53;;
12556;SDS011;6344;49.932;8.308;2022-12-01T02:48:05;43.50;;;27.80;;
12556;SDS011;6344;49.932;8.308;2022-12-01T02:50:36;42.87;;;25.77;;
12556;SDS011;6344;49.932;8.308;2022-12-01T02:53:04;47.70;;;27.20;;
12556;SDS011;6344;49.932;8.308;2022-12-01T02:55:34;45.20;;;25.27;;
12556;SDS011;6344;49.932;8.308;2022-12-01T02:58:01;50.67;;;27.33;;
12556;SDS011;6344;49.932;8.308;2022-12-01T03:00:38;47.73;;;27.83;;
12556;SDS011;6344;49.932;8.308;2022-12-01T03:03:20;36.57;;;24.30;;
12556;SDS011;6344;49.932;8.308;2022-12-01T03:05:57;46.83;;;27.50;;
12556;SDS011;6344;49.932;8.308;2022-12-01T03:08:34;45.73;;;27.00;;
12556;SDS011;6344;49.932;8.308;2022-12-01T03:11:11;44.87;;;28.03;;
12556;SDS011;6344;49.932;8.308;2022-12-01T03:13:53;41.07;;;25.17;;
12556;SDS011;6344;49.932;8.308;2022-12-01T03:16:28;35.90;;;25.07;;
12556;SDS011;6344;49.932;8.308;2022-12-01T03:19:06;40.13;;;25.50;;
12556;SDS011;6344;49.932;8.308;2022-12-01T03:21:47;46.40;;;28.23;;
12556;SDS011;6344;49.932;8.308;2022-12-01T03:24:20;44.57;;;27.10;;
12556;SDS011;6344;49.932;8.308;2022-12-01T03:26:56;39.60;;;23.60;;
12556;SDS011;6344;49.932;8.308;2022-12-01T03:29:27;46.07;;;27.07;;
12556;SDS011;6344;49.932;8.308;2022-12-01T03:31:58;40.57;;;24.77;;
12556;SDS011;6344;49.932;8.308;2022-12-01T03:34:35;44.33;;;27.03;;
12556;SDS011;6344;49.932;8.308;2022-12-01T03:37:14;43.10;;;26.57;;
12556;SDS011;6344;49.932;8.308;2022-12-01T03:39:46;43.50;;;26.80;;
12556;SDS011;6344;49.932;8.308;2022-12-01T03:42:21;39.37;;;24.87;;
12556;SDS011;6344;49.932;8.308;2022-12-01T03:44:52;42.07;;;25.57;;
12556;SDS011;6344;49.932;8.308;2022-12-01T03:47:25;47.37;;;27.47;;
12556;SDS011;6344;49.932;8.308;2022-12-01T03:50:00;38.30;;;24.80;;
12556;SDS011;6344;49.932;8.308;2022-12-01T03:52:32;42.63;;;25.07;;
12556;SDS011;6344;49.932;8.308;2022-12-01T03:55:07;40.90;;;27.63;;
12556;SDS011;6344;49.932;8.308;2022-12-01T03:57:40;39.77;;;24.37;;
12556;SDS011;6344;49.932;8.308;2022-12-01T04:00:12;45.03;;;26.07;;
12556;SDS011;6344;49.932;8.308;2022-12-01T04:02:41;41.90;;;27.90;;
12556;SDS011;6344;49.932;8.308;2022-12-01T04:05:12;49.47;;;25.67;;
12556;SDS011;6344;49.932;8.308;2022-12-01T04:07:39;46.27;;;28.33;;
12556;SDS011;6344;49.932;8.308;2022-12-01T04:10:06;41.07;;;27.93;;
12556;SDS011;6344;49.932;8.308;2022-12-01T04:12:33;42.80;;;28.50;;
12556;SDS011;6344;49.932;8.308;2022-12-01T04:15:04;48.10;;;28.47;;
12556;SDS011;6344;49.932;8.308;2022-12-01T04:17:34;42.00;;;26.70;;
12556;SDS011;6344;49.932;8.308;2022-12-01T04:20:07;39.10;;;25.77;;
12556;SDS011;6344;49.932;8.308;2022-12-01T04:22:39;47.10;;;29.43;;
12556;SDS011;6344;49.932;8.308;2022-12-01T04:25:06;44.60;;;29.30;;
12556;SDS011;6344;49.932;8.308;2022-12-01T04:27:33;41.00;;;26.27;;
12556;SDS011;6344;49.932;8.308;2022-12-01T04:30:02;45.57;;;29.40;;
12556;SDS011;6344;49.932;8.308;2022-12-01T04:32:30;44.70;;;29.00;;
12556;SDS011;6344;49.932;8.308;2022-12-01T04:35:00;46.00;;;29.80;;
12556;SDS011;6344;49.932;8.308;2022-12-01T04:37:28;49.83;;;30.43;;
12556;SDS011;6344;49.932;8.308;2022-12-01T04:40:02;41.03;;;28.43;;
12556;SDS011;6344;49.932;8.308;2022-12-01T04:42:30;46.30;;;28.53;;
12556;SDS011;6344;49.932;8.308;2022-12-01T04:44:57;40.43;;;27.33;;
12556;SDS011;6344;49.932;8.308;2022-12-01T04:47:25;42.23;;;28.60;;
12556;SDS011;6344;49.932;8.308;2022-12-01T04:49:53;42.07;;;27.67;;
12556;SDS011;6344;49.932;8.308;2022-12-01T04:52:20;41.13;;;28.23;;
12556;SDS011;6344;49.932;8.308;2022-12-01T04:54:47;45.77;;;29.00;;
12556;SDS011;6344;49.932;8.308;2022-12-01T04:57:17;46.87;;;29.80;;
12556;SDS011;6344;49.932;8.308;2022-12-01T04:59:44;47.27;;;28.27;;
12556;SDS011;6344;49.932;8.308;2022-12-01T05:02:10;42.20;;;27.30;;
12556;SDS011;6344;49.932;8.308;2022-12-01T05:04:37;42.67;;;27.50;;
12556;SDS011;6344;49.932;8.308;2022-12-01T05:07:13;44.83;;;28.83;;
12556;SDS011;6344;49.932;8.308;2022-12-01T05:09:41;43.97;;;28.97;;
12556;SDS011;6344;49.932;8.308;2022-12-01T05:12:10;44.77;;;28.47;;
12556;SDS011;6344;49.932;8.308;2022-12-01T05:14:58;42.10;;;28.93;;
12556;SDS011;6344;49.932;8.308;2022-12-01T05:17:25;45.80;;;27.43;;
12556;SDS011;6344;49.932;8.308;2022-12-01T05:19:55;42.43;;;28.40;;
12556;SDS011;6344;49.932;8.308;2022-12-01T05:22:42;35.70;;;22.67;;
12556;SDS011;6344;49.932;8.308;2022-12-01T05:25:09;35.47;;;22.70;;
12556;SDS011;6344;49.932;8.308;2022-12-01T05:27:37;39.60;;;26.23;;
12556;SDS011;6344;49.932;8.308;2022-12-01T05:30:06;47.33;;;29.87;;
12556;SDS011;6344;49.932;8.308;2022-12-01T05:32:34;40.70;;;27.00;;
12556;SDS011;6344;49.932;8.308;2022-12-01T05:35:02;30.13;;;22.60;;
12556;SDS011;6344;49.932;8.308;2022-12-01T05:37:29;29.90;;;22.10;;
12556;SDS011;6344;49.932;8.308;2022-12-01T05:39:58;33.83;;;22.10;;
12556;SDS011;6344;49.932;8.308;2022-12-01T05:42:27;34.17;;;23.87;;
12556;SDS011;6344;49.932;8.308;2022-12-01T05:44:55;34.60;;;21.77;;
12556;SDS011;6344;49.932;8.308;2022-12-01T05:47:23;33.67;;;24.10;;
12556;SDS011;6344;49.932;8.308;2022-12-01T05:49:50;43.60;;;23.87;;
12556;SDS011;6344;49.932;8.308;2022-12-01T05:52:19;35.53;;;24.97;;
12556;SDS011;6344;49.932;8.308;2022-12-01T05:54:48;32.07;;;23.20;;
12556;SDS011;6344;49.932;8.308;2022-12-01T05:57:18;36.20;;;27.07;;
12556;SDS011;6344;49.932;8.308;2022-12-01T05:59:47;43.77;;;26.70;;
12556;SDS011;6344;49.932;8.308;2022-12-01T06:02:24;33.97;;;24.90;;
12556;SDS011;6344;49.932;8.308;2022-12-01T06:04:51;36.23;;;23.77;;
12556;SDS011;6344;49.932;8.308;2022-12-01T06:07:18;32.40;;;22.33;;
12556;SDS011;6344;49.932;8.308;2022-12-01T06:09:49;35.80;;;25.53;;
12556;SDS011;6344;49.932;8.308;2022-12-01T06:12:28;30.77;;;23.57;;
12556;SDS011;6344;49.932;8.308;2022-12-01T06:14:55;34.90;;;21.17;;
12556;SDS011;6344;49.932;8.308;2022-12-01T06:17:24;41.10;;;29.53;;
12556;SDS011;6344;49.932;8.308;2022-12-01T06:19:54;36.77;;;26.67;;
12556;SDS011;6344;49.932;8.308;2022-12-01T06:22:24;38.80;;;24.60;;
12556;SDS011;6344;49.932;8.308;2022-12-01T06:24:53;39.77;;;26.33;;
12556;SDS011;6344;49.932;8.308;2022-12-01T06:27:21;38.07;;;25.17;;
12556;SDS011;6344;49.932;8.308;2022-12-01T06:29:48;35.00;;;22.07;;
12556;SDS011;6344;49.932;8.308;2022-12-01T06:32:17;37.37;;;25.87;;
12556;SDS011;6344;49.932;8.308;2022-12-01T06:34:49;35.90;;;25.23;;
12556;SDS011;6344;49.932;8.308;2022-12-01T06:37:17;38.00;;;25.40;;
12556;SDS011;6344;49.932;8.308;2022-12-01T06:39:46;35.53;;;24.50;;
12556;SDS011;6344;49.932;8.308;2022-12-01T06:42:12;38.20;;;25.53;;
12556;SDS011;6344;49.932;8.308;2022-12-01T06:44:41;35.90;;;23.03;;
12556;SDS011;6344;49.932;8.308;2022-12-01T06:47:10;37.70;;;23.83;;
12556;SDS011;6344;49.932;8.308;2022-12-01T06:49:36;34.00;;;22.57;;
12556;SDS011;6344;49.932;8.308;2022-12-01T06:52:06;43.83;;;25.80;;
12556;SDS011;6344;49.932;8.308;2022-12-01T06:54:34;28.53;;;21.93;;
12556;SDS011;6344;49.932;8.308;2022-12-01T06:57:07;35.33;;;24.37;;
12556;SDS011;6344;49.932;8.308;2022-12-01T06:59:33;34.50;;;23.80;;
12556;SDS011;6344;49.932;8.308;2022-12-01T07:02:08;40.13;;;26.30;;
12556;SDS011;6344;49.932;8.308;2022-12-01T07:04:37;35.80;;;26.03;;
12556;SDS011;6344;49.932;8.308;2022-12-01T07:07:06;36.90;;;23.60;;
12556;SDS011;6344;49.932;8.308;2022-12-01T07:09:34;30.00;;;22.17;;
12556;SDS011;6344;49.932;8.308;2022-12-01T07:12:01;33.23;;;24.53;;
12556;SDS011;6344;49.932;8.308;2022-12-01T07:14:28;33.03;;;24.50;;
12556;SDS011;6344;49.932;8.308;2022-12-01T07:17:08;30.87;;;20.80;;
12556;SDS011;6344;49.932;8.308;2022-12-01T07:19:35;32.47;;;22.20;;
12556;SDS011;6344;49.932;8.308;2022-12-01T07:22:12;30.03;;;19.93;;
12556;SDS011;6344;49.932;8.308;2022-12-01T07:24:40;33.27;;;20.60;;
12556;SDS011;6344;49.932;8.308;2022-12-01T07:27:07;29.27;;;20.03;;
12556;SDS011;6344;49.932;8.308;2022-12-01T07:29:34;31.37;;;22.37;;
12556;SDS011;6344;49.932;8.308;2022-12-01T07:32:01;27.37;;;19.33;;
12556;SDS011;6344;49.932;8.308;2022-12-01T07:34:29;29.70;;;20.90;;
12556;SDS011;6344;49.932;8.308;2022-12-01T07:36:56;29.73;;;21.27;;
12556;SDS011;6344;49.932;8.308;2022-12-01T07:39:29;30.20;;;21.30;;
12556;SDS011;6344;49.932;8.308;2022-12-01T07:41:55;30.97;;;20.40;;
12556;SDS011;6344;49.932;8.308;2022-12-01T07:44:22;25.83;;;20.27;;
12556;SDS011;6344;49.932;8.308;2022-12-01T07:46:49;29.53;;;20.97;;
12556;SDS011;6344;49.932;8.308;2022-12-01T07:49:15;28.07;;;18.70;;
12556;SDS011;6344;49.932;8.308;2022-12-01T07:51:48;26.23;;;19.43;;
12556;SDS011;6344;49.932;8.308;2022-12-01T07:54:16;31.47;;;19.20;;
12556;SDS011;6344;49.932;8.308;2022-12-01T07:56:46;28.60;;;19.77;;
12556;SDS011;6344;49.932;8.308;2022-12-01T07:59:13;29.20;;;20.97;;
12556;SDS011;6344;49.932;8.308;2022-12-01T08:01:43;25.40;;;20.03;;
12556;SDS011;6344;49.932;8.308;2022-12-01T08:04:11;31.23;;;22.40;;
12556;SDS011;6344;49.932;8.308;2022-12-01T08:06:40;28.77;;;19.70;;
12556;SDS011;6344;49.932;8.308;2022-12-01T08:09:07;30.70;;;21.47;;
12556;SDS011;6344;49.932;8.308;2022-12-01T08:11:36;30.60;;;22.00;;
12556;SDS011;6344;49.932;8.308;2022-12-01T08:14:07;28.67;;;21.53;;
12556;SDS011;6344;49.932;8.308;2022-12-01T08:16:40;28.80;;;19.80;;
12556;SDS011;6344;49.932;8.308;2022-12-01T08:19:09;28.60;;;20.57;;
12556;SDS011;6344;49.932;8.308;2022-12-01T08:21:36;33.20;;;18.30;;
12556;SDS011;6344;49.932;8.308;2022-12-01T08:24:03;28.13;;;19.50;;
12556;SDS011;6344;49.932;8.308;2022-12-01T08:26:33;26.73;;;20.47;;
12556;SDS011;6344;49.932;8.308;2022-12-01T08:29:08;27.07;;;21.70;;
12556;SDS011;6344;49.932;8.308;2022-12-01T08:31:35;26.37;;;19.00;;
12556;SDS011;6344;49.932;8.308;2022-12-01T08:34:04;30.73;;;21.80;;
12556;SDS011;6344;49.932;8.308;2022-12-01T08:36:32;29.40;;;21.20;;
12556;SDS011;6344;49.932;8.308;2022-12-01T08:39:08;26.20;;;20.10;;
12556;SDS011;6344;49.932;8.308;2022-12-01T08:41:36;27.93;;;19.33;;
12556;SDS011;6344;49.932;8.308;2022-12-01T08:44:06;24.03;;;19.17;;
12556;SDS011;6344;49.932;8.308;2022-12-01T08:46:37;29.77;;;22.00;;
12556;SDS011;6344;49.932;8.308;2022-12-01T08:49:06;26.60;;;20.33;;
12556;SDS011;6344;49.932;8.308;2022-12-01T08:51:37;26.93;;;18.17;;
12556;SDS011;6344;49.932;8.308;2022-12-01T08:54:11;27.63;;;17.77;;
12556;SDS011;6344;49.932;8.308;2022-12-01T08:56:38;27.73;;;20.40;;
12556;SDS011;6344;49.932;8.308;2022-12-01T08:59:08;25.17;;;18.63;;
12556;SDS011;6344;49.932;8.308;2022-12-01T09:01:40;23.13;;;16.47;;
12556;SDS011;6344;49.932;8.308;2022-12-01T09:04:17;23.57;;;17.70;;
12556;SDS011;6344;49.932;8.308;2022-12-01T09:06:44;28.27;;;18.03;;
12556;SDS011;6344;49.932;8.308;2022-12-01T09:09:13;23.33;;;17.50;;
12556;SDS011;6344;49.932;8.308;2022-12-01T09:11:45;24.90;;;17.70;;
12556;SDS011;6344;49.932;8.308;2022-12-01T09:14:13;24.60;;;16.50;;
12556;SDS011;6344;49.932;8.308;2022-12-01T09:16:43;18.90;;;15.70;;
12556;SDS011;6344;49.932;8.308;2022-12-01T09:19:12;22.40;;;16.90;;
12556;SDS011;6344;49.932;8.308;2022-12-01T09:21:39;23.87;;;17.50;;
12556;SDS011;6344;49.932;8.308;2022-12-01T09:24:24;25.57;;;18.67;;
12556;SDS011;6344;49.932;8.308;2022-12-01T09:26:54;21.60;;;16.40;;
12556;SDS011;6344;49.932;8.308;2022-12-01T09:29:27;21.53;;;16.07;;
12556;SDS011;6344;49.932;8.308;2022-12-01T09:31:57;14.03;;;11.03;;
12556;SDS011;6344;49.932;8.308;2022-12-01T09:34:28;16.63;;;10.87;;
12556;SDS011;6344;49.932;8.308;2022-12-01T09:36:59;20.73;;;16.00;;
12556;SDS011;6344;49.932;8.308;2022-12-01T09:39:26;14.60;;;10.47;;
12556;SDS011;6344;49.932;8.308;2022-12-01T09:41:55;19.77;;;15.30;;
12556;SDS011;6344;49.932;8.308;2022-12-01T09:44:38;21.67;;;16.80;;
12556;SDS011;6344;49.932;8.308;2022-12-01T09:47:09;21.93;;;13.87;;
12556;SDS011;6344;49.932;8.308;2022-12-01T09:49:48;20.07;;;16.33;;
12556;SDS011;6344;49.932;8.308;2022-12-01T09:52:24;23.07;;;15.13;;
12556;SDS011;6344;49.932;8.308;2022-12-01T09:54:54;19.83;;;13.50;;
12556;SDS011;6344;49.932;8.308;2022-12-01T09:57:31;14.63;;;10.97;;
12556;SDS011;6344;49.932;8.308;2022-12-01T10:00:04;19.77;;;15.77;;
12556;SDS011;6344;49.932;8.308;2022-12-01T10:02:43;16.63;;;11.70;;
12556;SDS011;6344;49.932;8.308;2022-12-01T10:05:20;19.97;;;15.90;;
12556;SDS011;6344;49.932;8.308;2022-12-01T10:07:49;20.10;;;15.93;;
12556;SDS011;6344;49.932;8.308;2022-12-01T10:10:23;22.00;;;15.20;;
12556;SDS011;6344;49.932;8.308;2022-12-01T10:12:54;18.43;;;16.20;;
12556;SDS011;6344;49.932;8.308;2022-12-01T10:15:28;20.53;;;14.80;;
12556;SDS011;6344;49.932;8.308;2022-12-01T10:18:11;18.83;;;14.10;;
12556;SDS011;6344;49.932;8.308;2022-12-01T10:20:47;18.50;;;15.30;;
12556;SDS011;6344;49.932;8.308;2022-12-01T10:23:34;24.90;;;15.27;;
12556;SDS011;6344;49.932;8.308;2022-12-01T10:26:12;18.43;;;16.20;;
12556;SDS011;6344;49.932;8.308;2022-12-01T10:28:48;20.67;;;16.17;;
12556;SDS011;6344;49.932;8.308;2022-12-01T10:31:24;16.80;;;13.60;;
12556;SDS011;6344;49.932;8.308;2022-12-01T10:34:05;13.87;;;9.17;;
12556;SDS011;6344;49.932;8.308;2022-12-01T10:36:40;17.60;;;14.70;;
12556;SDS011;6344;49.932;8.308;2022-12-01T10:39:15;20.40;;;12.73;;
12556;SDS011;6344;49.932;8.308;2022-12-01T10:41:46;15.90;;;13.43;;
12556;SDS011;6344;49.932;8.308;2022-12-01T10:44:18;20.53;;;14.07;;
12556;SDS011;6344;49.932;8.308;2022-12-01T10:46:46;13.50;;;10.47;;
12556;SDS011;6344;49.932;8.308;2022-12-01T10:49:34;17.47;;;13.80;;
12556;SDS011;6344;49.932;8.308;2022-12-01T10:52:03;18.87;;;13.23;;
12556;SDS011;6344;49.932;8.308;2022-12-01T10:54:31;18.63;;;15.20;;
12556;SDS011;6344;49.932;8.308;2022-12-01T10:57:00;19.60;;;15.23;;
12556;SDS011;6344;49.932;8.308;2022-12-01T10:59:34;18.30;;;14.23;;
12556;SDS011;6344;49.932;8.308;2022-12-01T11:02:13;18.27;;;15.60;;
12556;SDS011;6344;49.932;8.308;2022-12-01T11:04:49;18.60;;;16.00;;
12556;SDS011;6344;49.932;8.308;2022-12-01T11:07:23;17.43;;;14.20;;
12556;SDS011;6344;49.932;8.308;2022-12-01T11:10:03;18.70;;;12.50;;
12556;SDS011;6344;49.932;8.308;2022-12-01T11:12:40;15.40;;;11.83;;
12556;SDS011;6344;49.932;8.308;2022-12-01T11:15:17;17.17;;;13.20;;
12556;SDS011;6344;49.932;8.308;2022-12-01T11:17:47;17.57;;;14.37;;
12556;SDS011;6344;49.932;8.308;2022-12-01T11:20:30;16.53;;;12.53;;
12556;SDS011;6344;49.932;8.308;2022-12-01T11:23:22;14.50;;;13.00;;
12556;SDS011;6344;49.932;8.308;2022-12-01T11:25:59;18.30;;;15.73;;
12556;SDS011;6344;49.932;8.308;2022-12-01T11:28:31;15.93;;;11.57;;
12556;SDS011;6344;49.932;8.308;2022-12-01T11:31:01;17.47;;;12.60;;
12556;SDS011;6344;49.932;8.308;2022-12-01T11:33:44;18.77;;;15.00;;
12556;SDS011;6344;49.932;8.308;2022-12-01T11:36:24;19.37;;;13.20;;
12556;SDS011;6344;49.932;8.308;2022-12-01T11:38:55;20.70;;;15.00;;
12556;SDS011;6344;49.932;8.308;2022-12-01T11:41:27;21.20;;;16.37;;
12556;SDS011;6344;49.932;8.308;2022-12-01T11:44:02;23.03;;;16.57;;
12556;SDS011;6344;49.932;8.308;2022-12-01T11:46:32;22.80;;;16.97;;
12556;SDS011;6344;49.932;8.308;2022-12-01T11:49:09;23.00;;;18.77;;
12556;SDS011;6344;49.932;8.308;2022-12-01T11:51:43;24.00;;;17.80;;
12556;SDS011;6344;49.932;8.308;2022-12-01T11:54:12;24.87;;;18.77;;
12556;SDS011;6344;49.932;8.308;2022-12-01T11:56:42;26.73;;;18.53;;
12556;SDS011;6344;49.932;8.308;2022-12-01T11:59:15;27.60;;;19.60;;
12556;SDS011;6344;49.932;8.308;2022-12-01T12:01:52;27.30;;;20.50;;
12556;SDS011;6344;49.932;8.308;2022-12-01T12:04:40;29.17;;;19.63;;
12556;SDS011;6344;49.932;8.308;2022-12-01T12:07:25;26.47;;;17.50;;
12556;SDS011;6344;49.932;8.308;2022-12-01T12:10:06;28.07;;;19.27;;
12556;SDS011;6344;49.932;8.308;2022-12-01T12:12:50;27.33;;;19.57;;
12556;SDS011;6344;49.932;8.308;2022-12-01T12:15:29;30.30;;;21.33;;
12556;SDS011;6344;49.932;8.308;2022-12-01T12:18:12;26.63;;;19.20;;
12556;SDS011;6344;49.932;8.308;2022-12-01T12:20:59;26.93;;;18.53;;
12556;SDS011;6344;49.932;8.308;2022-12-01T12:26:40;22.93;;;18.53;;
12556;SDS011;6344;49.932;8.308;2022-12-01T12:29:20;24.37;;;18.03;;
12556;SDS011;6344;49.932;8.308;2022-12-01T12:32:12;28.23;;;20.10;;
12556;SDS011;6344;49.932;8.308;2022-12-01T12:34:57;25.30;;;18.90;;
12556;SDS011;6344;49.932;8.308;2022-12-01T12:37:30;21.33;;;14.37;;
12556;SDS011;6344;49.932;8.308;2022-12-01T12:40:16;26.63;;;18.37;;
12556;SDS011;6344;49.932;8.308;2022-12-01T12:42:58;25.30;;;18.03;;
12556;SDS011;6344;49.932;8.308;2022-12-01T12:45:46;26.50;;;17.67;;
12556;SDS011;6344;49.932;8.308;2022-12-01T12:48:30;24.70;;;17.63;;
12556;SDS011;6344;49.932;8.308;2022-12-01T12:51:11;21.23;;;15.10;;
12556;SDS011;6344;49.932;8.308;2022-12-01T12:53:46;25.90;;;17.40;;
12556;SDS011;6344;49.932;8.308;2022-12-01T12:56:22;14.90;;;11.17;;
12556;SDS011;6344;49.932;8.308;2022-12-01T12:58:56;22.80;;;17.57;;
12556;SDS011;6344;49.932;8.308;2022-12-01T13:01:33;24.23;;;17.27;;
12556;SDS011;6344;49.932;8.308;2022-12-01T13:04:09;20.90;;;13.70;;
12556;SDS011;6344;49.932;8.308;2022-12-01T13:06:42;23.03;;;18.43;;
12556;SDS011;6344;49.932;8.308;2022-12-01T13:09:14;17.23;;;12.10;;
12556;SDS011;6344;49.932;8.308;2022-12-01T13:11:50;23.43;;;17.90;;
12556;SDS011;6344;49.932;8.308;2022-12-01T13:14:27;27.13;;;18.47;;
12556;SDS011;6344;49.932;8.308;2022-12-01T13:17:04;26.03;;;18.27;;
12556;SDS011;6344;49.932;8.308;2022-12-01T13:19:35;23.73;;;17.37;;
12556;SDS011;6344;49.932;8.308;2022-12-01T13:22:05;27.57;;;20.60;;
12556;SDS011;6344;49.932;8.308;2022-12-01T13:24:36;24.97;;;19.40;;
12556;SDS011;6344;49.932;8.308;2022-12-01T13:27:06;27.97;;;20.67;;
12556;SDS011;6344;49.932;8.308;2022-12-01T13:29:45;24.37;;;17.90;;
12556;SDS011;6344;49.932;8.308;2022-12-01T13:32:25;20.57;;;13.23;;
12556;SDS011;6344;49.932;8.308;2022-12-01T13:34:55;25.17;;;18.87;;
12556;SDS011;6344;49.932;8.308;2022-12-01T13:37:24;16.70;;;12.40;;
12556;SDS011;6344;49.932;8.308;2022-12-01T13:40:05;18.43;;;13.07;;
12556;SDS011;6344;49.932;8.308;2022-12-01T13:42:50;26.60;;;17.43;;
12556;SDS011;6344;49.932;8.308;2022-12-01T13:45:26;29.07;;;19.57;;
12556;SDS011;6344;49.932;8.308;2022-12-01T13:47:57;18.37;;;14.47;;
12556;SDS011;6344;49.932;8.308;2022-12-01T13:53:26;27.10;;;20.43;;
12556;SDS011;6344;49.932;8.308;2022-12-01T13:55:55;27.37;;;19.73;;
12556;SDS011;6344;49.932;8.308;2022-12-01T13:58:25;25.13;;;16.30;;
12556;SDS011;6344;49.932;8.308;2022-12-01T14:04:25;23.23;;;15.33;;
12556;SDS011;6344;49.932;8.308;2022-12-01T14:10:21;9.53;;;6.53;;
12556;SDS011;6344;49.932;8.308;2022-12-01T14:12:55;21.17;;;13.40;;
12556;SDS011;6344;49.932;8.308;2022-12-01T14:18:20;18.23;;;10.77;;
12556;SDS011;6344;49.932;8.308;2022-12-01T14:20:58;25.80;;;18.90;;
12556;SDS011;6344;49.932;8.308;2022-12-01T14:23:37;22.30;;;16.80;;
12556;SDS011;6344;49.932;8.308;2022-12-01T14:26:25;29.10;;;20.27;;
12556;SDS011;6344;49.932;8.308;2022-12-01T14:35:02;25.60;;;15.73;;
12556;SDS011;6344;49.932;8.308;2022-12-01T14:37:40;22.43;;;15.93;;
12556;SDS011;6344;49.932;8.308;2022-12-01T14:40:23;23.83;;;16.13;;
12556;SDS011;6344;49.932;8.308;2022-12-01T14:43:08;20.10;;;12.20;;
12556;SDS011;6344;49.932;8.308;2022-12-01T14:45:55;25.27;;;18.50;;
12556;SDS011;6344;49.932;8.308;2022-12-01T14:48:35;21.40;;;16.73;;
12556;SDS011;6344;49.932;8.308;2022-12-01T14:51:15;22.43;;;17.80;;
12556;SDS011;6344;49.932;8.308;2022-12-01T14:53:51;24.63;;;18.07;;
12556;SDS011;6344;49.932;8.308;2022-12-01T14:56:20;22.87;;;15.97;;
12556;SDS011;6344;49.932;8.308;2022-12-01T14:58:53;24.80;;;19.40;;
12556;SDS011;6344;49.932;8.308;2022-12-01T15:01:23;21.87;;;14.70;;
12556;SDS011;6344;49.932;8.308;2022-12-01T15:03:55;23.33;;;17.10;;
12556;SDS011;6344;49.932;8.308;2022-12-01T15:06:26;24.30;;;16.93;;
12556;SDS011;6344;49.932;8.308;2022-12-01T15:09:04;24.30;;;17.40;;
12556;SDS011;6344;49.932;8.308;2022-12-01T15:11:47;24.97;;;18.90;;
12556;SDS011;6344;49.932;8.308;2022-12-01T15:14:21;28.30;;;19.57;;
12556;SDS011;6344;49.932;8.308;2022-12-01T15:16:59;17.87;;;11.30;;
12556;SDS011;6344;49.932;8.308;2022-12-01T15:19:30;24.53;;;17.87;;
12556;SDS011;6344;49.932;8.308;2022-12-01T15:22:04;26.90;;;19.57;;
12556;SDS011;6344;49.932;8.308;2022-12-01T15:24:44;26.70;;;19.77;;
12556;SDS011;6344;49.932;8.308;2022-12-01T15:27:22;24.10;;;17.97;;
12556;SDS011;6344;49.932;8.308;2022-12-01T15:29:51;24.77;;;17.87;;
12556;SDS011;6344;49.932;8.308;2022-12-01T15:32:27;24.60;;;17.73;;
12556;SDS011;6344;49.932;8.308;2022-12-01T15:34:57;20.90;;;16.33;;
12556;SDS011;6344;49.932;8.308;2022-12-01T15:37:39;23.00;;;16.87;;
12556;SDS011;6344;49.932;8.308;2022-12-01T15:40:10;24.37;;;17.77;;
12556;SDS011;6344;49.932;8.308;2022-12-01T15:42:58;20.33;;;16.10;;